sensor_id;sensor_type;location;lat;lon;timestamp;temperature;humidity
70593;DHT22;58294;42.988;20.338;2023-04-03T00:00:23;230.70;1920.00
70593;DHT22;58294;42.988;20.338;2023-04-03T00:02:48;230.70;1945.60
70593;DHT22;58294;42.988;20.338;2023-04-03T00:05:14;230.70;1945.60
70593;DHT22;58294;42.988;20.338;2023-04-03T00:07:40;230.80;1945.60
70593;DHT22;58294;42.988;20.338;2023-04-03T00:10:06;230.80;1920.00
70593;DHT22;58294;42.988;20.338;2023-04-03T00:12:32;230.80;1945.60
70593;DHT22;58294;42.988;20.338;2023-04-03T00:14:58;230.90;1920.00
70593;DHT22;58294;42.988;20.338;2023-04-03T00:17:24;230.90;1920.00
70593;DHT22;58294;42.988;20.338;2023-04-03T00:19:49;230.90;1894.40
70593;DHT22;58294;42.988;20.338;2023-04-03T00:22:15;230.90;1894.40
70593;DHT22;58294;42.988;20.338;2023-04-03T00:24:41;230.90;1920.00
70593;DHT22;58294;42.988;20.338;2023-04-03T00:27:07;230.90;1894.40
70593;DHT22;58294;42.988;20.338;2023-04-03T00:29:33;230.90;1920.00
70593;DHT22;58294;42.988;20.338;2023-04-03T00:31:58;230.90;1920.00
70593;DHT22;58294;42.988;20.338;2023-04-03T00:34:24;230.90;1920.00
70593;DHT22;58294;42.988;20.338;2023-04-03T00:36:50;231.00;1920.00
70593;DHT22;58294;42.988;20.338;2023-04-03T00:39:16;231.00;1920.00
70593;DHT22;58294;42.988;20.338;2023-04-03T00:41:42;231.00;1920.00
70593;DHT22;58294;42.988;20.338;2023-04-03T00:47:09;231.00;1920.00
70593;DHT22;58294;42.988;20.338;2023-04-03T00:49:37;231.00;1920.00
70593;DHT22;58294;42.988;20.338;2023-04-03T00:52:05;230.90;1920.00
70593;DHT22;58294;42.988;20.338;2023-04-03T00:54:35;230.90;1945.60
70593;DHT22;58294;42.988;20.338;2023-04-03T00:57:01;230.90;1920.00
70593;DHT22;58294;42.988;20.338;2023-04-03T00:59:32;230.90;1920.00
70593;DHT22;58294;42.988;20.338;2023-04-03T01:01:59;230.90;1894.40
70593;DHT22;58294;42.988;20.338;2023-04-03T01:04:32;230.90;1894.40
70593;DHT22;58294;42.988;20.338;2023-04-03T01:07:04;230.80;1894.40
70593;DHT22;58294;42.988;20.338;2023-04-03T01:09:32;230.80;1868.80
70593;DHT22;58294;42.988;20.338;2023-04-03T01:12:30;230.70;1894.40
70593;DHT22;58294;42.988;20.338;2023-04-03T01:15:10;230.60;1868.80
70593;DHT22;58294;42.988;20.338;2023-04-03T01:17:41;230.50;1894.40
70593;DHT22;58294;42.988;20.338;2023-04-03T01:22:59;230.40;1894.40
70593;DHT22;58294;42.988;20.338;2023-04-03T01:25:27;230.40;1894.40
70593;DHT22;58294;42.988;20.338;2023-04-03T01:27:53;230.40;1920.00
70593;DHT22;58294;42.988;20.338;2023-04-03T01:30:21;205.70;1945.60
70593;DHT22;58294;42.988;20.338;2023-04-03T01:32:49;230.40;1945.60
70593;DHT22;58294;42.988;20.338;2023-04-03T01:35:15;205.70;1945.60
70593;DHT22;58294;42.988;20.338;2023-04-03T01:37:40;205.70;1920.00
70593;DHT22;58294;42.988;20.338;2023-04-03T01:40:07;205.70;1945.60
70593;DHT22;58294;42.988;20.338;2023-04-03T01:42:33;205.70;1945.60
70593;DHT22;58294;42.988;20.338;2023-04-03T01:44:59;205.70;1971.20
70593;DHT22;58294;42.988;20.338;2023-04-03T01:47:25;205.70;1945.60
70593;DHT22;58294;42.988;20.338;2023-04-03T01:49:50;205.70;1945.60
70593;DHT22;58294;42.988;20.338;2023-04-03T01:52:16;205.60;1945.60
70593;DHT22;58294;42.988;20.338;2023-04-03T01:54:42;205.60;1945.60
70593;DHT22;58294;42.988;20.338;2023-04-03T01:57:08;205.60;1971.20
70593;DHT22;58294;42.988;20.338;2023-04-03T01:59:33;205.60;1971.20
70593;DHT22;58294;42.988;20.338;2023-04-03T02:01:59;205.50;1971.20
70593;DHT22;58294;42.988;20.338;2023-04-03T02:04:25;205.50;1971.20
70593;DHT22;58294;42.988;20.338;2023-04-03T02:06:51;205.40;1945.60
70593;DHT22;58294;42.988;20.338;2023-04-03T02:09:16;205.40;1971.20
70593;DHT22;58294;42.988;20.338;2023-04-03T02:11:42;205.40;1971.20
70593;DHT22;58294;42.988;20.338;2023-04-03T02:14:08;205.40;1945.60
70593;DHT22;58294;42.988;20.338;2023-04-03T02:16:34;205.30;1971.20
70593;DHT22;58294;42.988;20.338;2023-04-03T02:18:59;205.30;1996.80
70593;DHT22;58294;42.988;20.338;2023-04-03T02:21:25;205.40;1996.80
70593;DHT22;58294;42.988;20.338;2023-04-03T02:23:51;205.40;1996.80
70593;DHT22;58294;42.988;20.338;2023-04-03T02:26:17;205.40;1996.80
70593;DHT22;58294;42.988;20.338;2023-04-03T02:28:42;205.40;2022.40
70593;DHT22;58294;42.988;20.338;2023-04-03T02:31:09;205.40;2022.40
70593;DHT22;58294;42.988;20.338;2023-04-03T02:33:36;205.50;2022.40
70593;DHT22;58294;42.988;20.338;2023-04-03T02:36:06;205.50;2022.40
70593;DHT22;58294;42.988;20.338;2023-04-03T02:38:32;205.60;2022.40
70593;DHT22;58294;42.988;20.338;2023-04-03T02:41:10;205.60;2022.40
70593;DHT22;58294;42.988;20.338;2023-04-03T02:43:36;205.70;2022.40
70593;DHT22;58294;42.988;20.338;2023-04-03T02:46:03;205.70;2022.40
70593;DHT22;58294;42.988;20.338;2023-04-03T02:48:29;230.40;2022.40
70593;DHT22;58294;42.988;20.338;2023-04-03T02:50:55;230.40;2022.40
70593;DHT22;58294;42.988;20.338;2023-04-03T02:53:21;230.40;2022.40
70593;DHT22;58294;42.988;20.338;2023-04-03T02:55:47;230.40;1996.80
70593;DHT22;58294;42.988;20.338;2023-04-03T02:58:13;230.40;1996.80
70593;DHT22;58294;42.988;20.338;2023-04-03T03:00:39;230.50;1996.80
70593;DHT22;58294;42.988;20.338;2023-04-03T03:03:05;230.50;2022.40
70593;DHT22;58294;42.988;20.338;2023-04-03T03:05:31;230.50;1996.80
70593;DHT22;58294;42.988;20.338;2023-04-03T03:07:57;230.50;1996.80
70593;DHT22;58294;42.988;20.338;2023-04-03T03:10:23;230.50;1996.80
70593;DHT22;58294;42.988;20.338;2023-04-03T03:12:49;230.50;1996.80
70593;DHT22;58294;42.988;20.338;2023-04-03T03:15:15;230.50;2022.40
70593;DHT22;58294;42.988;20.338;2023-04-03T03:17:42;230.50;1996.80
70593;DHT22;58294;42.988;20.338;2023-04-03T03:20:09;230.50;2022.40
70593;DHT22;58294;42.988;20.338;2023-04-03T03:22:35;230.60;2022.40
70593;DHT22;58294;42.988;20.338;2023-04-03T03:25:01;230.70;2048.00
70593;DHT22;58294;42.988;20.338;2023-04-03T03:27:28;230.60;1996.80
70593;DHT22;58294;42.988;20.338;2023-04-03T03:29:53;230.60;1996.80
70593;DHT22;58294;42.988;20.338;2023-04-03T03:32:19;230.60;1996.80
70593;DHT22;58294;42.988;20.338;2023-04-03T03:34:45;230.60;1996.80
70593;DHT22;58294;42.988;20.338;2023-04-03T03:37:11;230.60;1996.80
70593;DHT22;58294;42.988;20.338;2023-04-03T03:39:37;230.60;1971.20
70593;DHT22;58294;42.988;20.338;2023-04-03T03:42:03;230.60;1996.80
70593;DHT22;58294;42.988;20.338;2023-04-03T03:44:29;230.60;1996.80
70593;DHT22;58294;42.988;20.338;2023-04-03T03:46:55;230.60;1996.80
70593;DHT22;58294;42.988;20.338;2023-04-03T03:49:21;230.60;1996.80
70593;DHT22;58294;42.988;20.338;2023-04-03T03:51:47;230.60;1971.20
70593;DHT22;58294;42.988;20.338;2023-04-03T03:54:13;230.60;1996.80
70593;DHT22;58294;42.988;20.338;2023-04-03T03:56:39;230.60;1971.20
70593;DHT22;58294;42.988;20.338;2023-04-03T03:59:05;230.50;1971.20
70593;DHT22;58294;42.988;20.338;2023-04-03T04:01:31;230.50;1971.20
70593;DHT22;58294;42.988;20.338;2023-04-03T04:03:57;230.40;1971.20
70593;DHT22;58294;42.988;20.338;2023-04-03T04:06:22;230.40;1971.20
70593;DHT22;58294;42.988;20.338;2023-04-03T04:08:48;230.40;1996.80
70593;DHT22;58294;42.988;20.338;2023-04-03T04:11:14;230.40;1996.80
70593;DHT22;58294;42.988;20.338;2023-04-03T04:13:40;230.40;1971.20
70593;DHT22;58294;42.988;20.338;2023-04-03T04:16:07;205.70;1996.80
70593;DHT22;58294;42.988;20.338;2023-04-03T04:18:33;230.40;2022.40
70593;DHT22;58294;42.988;20.338;2023-04-03T04:20:59;230.40;1996.80
70593;DHT22;58294;42.988;20.338;2023-04-03T04:23:25;230.40;2022.40
70593;DHT22;58294;42.988;20.338;2023-04-03T04:25:51;230.40;2048.00
70593;DHT22;58294;42.988;20.338;2023-04-03T04:28:17;230.40;2048.00
70593;DHT22;58294;42.988;20.338;2023-04-03T04:30:44;230.50;2048.00
70593;DHT22;58294;42.988;20.338;2023-04-03T04:33:10;230.50;2048.00
70593;DHT22;58294;42.988;20.338;2023-04-03T04:35:36;230.50;2048.00
70593;DHT22;58294;42.988;20.338;2023-04-03T04:38:02;230.60;2048.00
70593;DHT22;58294;42.988;20.338;2023-04-03T04:40:28;230.70;2048.00
70593;DHT22;58294;42.988;20.338;2023-04-03T04:42:54;230.60;2048.00
70593;DHT22;58294;42.988;20.338;2023-04-03T04:45:20;230.70;2048.00
70593;DHT22;58294;42.988;20.338;2023-04-03T04:47:45;230.70;2048.00
70593;DHT22;58294;42.988;20.338;2023-04-03T04:50:12;230.80;2048.00
70593;DHT22;58294;42.988;20.338;2023-04-03T04:52:38;230.80;2073.60
70593;DHT22;58294;42.988;20.338;2023-04-03T04:55:04;230.90;2073.60
70593;DHT22;58294;42.988;20.338;2023-04-03T04:57:30;230.90;2048.00
70593;DHT22;58294;42.988;20.338;2023-04-03T04:59:56;231.00;2022.40
70593;DHT22;58294;42.988;20.338;2023-04-03T05:02:22;231.00;2022.40
70593;DHT22;58294;42.988;20.338;2023-04-03T05:04:47;231.00;2022.40
70593;DHT22;58294;42.988;20.338;2023-04-03T05:07:15;231.00;2048.00
70593;DHT22;58294;42.988;20.338;2023-04-03T05:09:41;231.10;2048.00
70593;DHT22;58294;42.988;20.338;2023-04-03T05:12:08;231.10;2022.40
70593;DHT22;58294;42.988;20.338;2023-04-03T05:14:33;231.20;2048.00
70593;DHT22;58294;42.988;20.338;2023-04-03T05:16:59;231.20;1996.80
70593;DHT22;58294;42.988;20.338;2023-04-03T05:19:25;231.10;1996.80
70593;DHT22;58294;42.988;20.338;2023-04-03T05:21:50;231.20;2022.40
70593;DHT22;58294;42.988;20.338;2023-04-03T05:24:16;231.20;2022.40
70593;DHT22;58294;42.988;20.338;2023-04-03T05:26:43;231.20;2022.40
70593;DHT22;58294;42.988;20.338;2023-04-03T05:29:09;231.20;2022.40
70593;DHT22;58294;42.988;20.338;2023-04-03T05:31:35;231.20;1996.80
70593;DHT22;58294;42.988;20.338;2023-04-03T05:34:02;231.20;2022.40
70593;DHT22;58294;42.988;20.338;2023-04-03T05:36:28;231.30;2048.00
70593;DHT22;58294;42.988;20.338;2023-04-03T05:38:54;231.30;2048.00
70593;DHT22;58294;42.988;20.338;2023-04-03T05:41:21;231.30;2048.00
70593;DHT22;58294;42.988;20.338;2023-04-03T05:43:47;256.00;2048.00
70593;DHT22;58294;42.988;20.338;2023-04-03T05:46:15;256.00;2022.40
70593;DHT22;58294;42.988;20.338;2023-04-03T05:48:42;256.10;2022.40
70593;DHT22;58294;42.988;20.338;2023-04-03T05:51:24;256.20;2048.00
70593;DHT22;58294;42.988;20.338;2023-04-03T05:53:56;256.20;2048.00
70593;DHT22;58294;42.988;20.338;2023-04-03T05:56:24;256.30;2048.00
70593;DHT22;58294;42.988;20.338;2023-04-03T05:58:50;256.40;2048.00
70593;DHT22;58294;42.988;20.338;2023-04-03T06:01:16;256.40;2022.40
70593;DHT22;58294;42.988;20.338;2023-04-03T06:03:42;256.40;2022.40
70593;DHT22;58294;42.988;20.338;2023-04-03T06:06:08;256.40;1996.80
70593;DHT22;58294;42.988;20.338;2023-04-03T06:08:37;256.40;2022.40
70593;DHT22;58294;42.988;20.338;2023-04-03T06:11:03;256.50;2022.40
70593;DHT22;58294;42.988;20.338;2023-04-03T06:13:29;256.60;2048.00
70593;DHT22;58294;42.988;20.338;2023-04-03T06:15:55;256.60;1996.80
70593;DHT22;58294;42.988;20.338;2023-04-03T06:18:22;256.50;2022.40
70593;DHT22;58294;42.988;20.338;2023-04-03T06:20:47;256.50;2022.40
70593;DHT22;58294;42.988;20.338;2023-04-03T06:23:13;256.60;2073.60
70593;DHT22;58294;42.988;20.338;2023-04-03T06:25:39;256.60;2099.20
70593;DHT22;58294;42.988;20.338;2023-04-03T06:28:05;256.70;2124.80
70593;DHT22;58294;42.988;20.338;2023-04-03T06:30:31;256.90;2150.40
70593;DHT22;58294;42.988;20.338;2023-04-03T06:32:56;281.60;2150.40
70593;DHT22;58294;42.988;20.338;2023-04-03T06:35:22;281.70;2124.80
70593;DHT22;58294;42.988;20.338;2023-04-03T06:37:49;281.80;2150.40
70593;DHT22;58294;42.988;20.338;2023-04-03T06:40:21;281.90;2150.40
70593;DHT22;58294;42.988;20.338;2023-04-03T06:42:46;281.80;2099.20
70593;DHT22;58294;42.988;20.338;2023-04-03T06:45:12;281.80;2124.80
70593;DHT22;58294;42.988;20.338;2023-04-03T06:47:38;281.80;2124.80
70593;DHT22;58294;42.988;20.338;2023-04-03T06:50:04;282.00;2176.00
70593;DHT22;58294;42.988;20.338;2023-04-03T06:52:32;282.10;2150.40
70593;DHT22;58294;42.988;20.338;2023-04-03T06:54:57;282.20;2150.40
70593;DHT22;58294;42.988;20.338;2023-04-03T06:57:25;282.30;2150.40
70593;DHT22;58294;42.988;20.338;2023-04-03T06:59:51;282.40;2099.20
70593;DHT22;58294;42.988;20.338;2023-04-03T07:02:17;282.40;2073.60
70593;DHT22;58294;42.988;20.338;2023-04-03T07:04:42;282.40;2099.20
70593;DHT22;58294;42.988;20.338;2023-04-03T07:07:08;307.20;2150.40
70593;DHT22;58294;42.988;20.338;2023-04-03T07:09:34;307.30;2150.40
70593;DHT22;58294;42.988;20.338;2023-04-03T07:12:00;307.30;2073.60
70593;DHT22;58294;42.988;20.338;2023-04-03T07:14:25;282.50;2022.40
70593;DHT22;58294;42.988;20.338;2023-04-03T07:16:51;282.50;2022.40
70593;DHT22;58294;42.988;20.338;2023-04-03T07:19:17;282.50;2048.00
70593;DHT22;58294;42.988;20.338;2023-04-03T07:21:44;282.50;2073.60
70593;DHT22;58294;42.988;20.338;2023-04-03T07:24:10;282.50;2073.60
70593;DHT22;58294;42.988;20.338;2023-04-03T07:26:36;307.20;2073.60
70593;DHT22;58294;42.988;20.338;2023-04-03T07:29:02;307.20;2073.60
70593;DHT22;58294;42.988;20.338;2023-04-03T07:31:28;282.50;1971.20
70593;DHT22;58294;42.988;20.338;2023-04-03T07:33:54;282.50;1971.20
70593;DHT22;58294;42.988;20.338;2023-04-03T07:36:21;282.40;1971.20
70593;DHT22;58294;42.988;20.338;2023-04-03T07:38:48;282.30;1971.20
70593;DHT22;58294;42.988;20.338;2023-04-03T07:41:16;282.30;1996.80
70593;DHT22;58294;42.988;20.338;2023-04-03T07:43:43;282.30;1971.20
70593;DHT22;58294;42.988;20.338;2023-04-03T07:46:09;282.30;1996.80
70593;DHT22;58294;42.988;20.338;2023-04-03T07:48:36;282.10;1996.80
70593;DHT22;58294;42.988;20.338;2023-04-03T07:51:03;281.90;1996.80
70593;DHT22;58294;42.988;20.338;2023-04-03T07:53:29;281.80;2022.40
70593;DHT22;58294;42.988;20.338;2023-04-03T07:55:58;281.80;2048.00
70593;DHT22;58294;42.988;20.338;2023-04-03T07:58:25;281.90;2073.60
70593;DHT22;58294;42.988;20.338;2023-04-03T08:00:51;281.90;2048.00
70593;DHT22;58294;42.988;20.338;2023-04-03T08:03:17;281.80;2073.60
70593;DHT22;58294;42.988;20.338;2023-04-03T08:05:47;282.00;2124.80
70593;DHT22;58294;42.988;20.338;2023-04-03T08:08:16;282.10;2099.20
70593;DHT22;58294;42.988;20.338;2023-04-03T08:10:43;282.20;2124.80
70593;DHT22;58294;42.988;20.338;2023-04-03T08:13:09;282.20;2073.60
70593;DHT22;58294;42.988;20.338;2023-04-03T08:15:36;282.20;2150.40
70593;DHT22;58294;42.988;20.338;2023-04-03T08:18:02;282.20;2124.80
70593;DHT22;58294;42.988;20.338;2023-04-03T08:20:28;282.30;2073.60
70593;DHT22;58294;42.988;20.338;2023-04-03T08:22:55;282.30;2073.60
70593;DHT22;58294;42.988;20.338;2023-04-03T08:25:20;282.40;2099.20
70593;DHT22;58294;42.988;20.338;2023-04-03T08:27:46;282.40;2073.60
70593;DHT22;58294;42.988;20.338;2023-04-03T08:30:13;282.40;2048.00
70593;DHT22;58294;42.988;20.338;2023-04-03T08:32:39;282.30;2022.40
70593;DHT22;58294;42.988;20.338;2023-04-03T08:35:07;282.00;1996.80
70593;DHT22;58294;42.988;20.338;2023-04-03T08:37:35;281.80;2048.00
70593;DHT22;58294;42.988;20.338;2023-04-03T08:40:03;281.80;2099.20
70593;DHT22;58294;42.988;20.338;2023-04-03T08:48:24;281.60;2124.80
70593;DHT22;58294;42.988;20.338;2023-04-03T08:50:56;256.80;2099.20
70593;DHT22;58294;42.988;20.338;2023-04-03T08:53:27;256.80;2124.80
70593;DHT22;58294;42.988;20.338;2023-04-03T08:55:55;256.80;2176.00
70593;DHT22;58294;42.988;20.338;2023-04-03T08:58:29;281.60;2227.20
70593;DHT22;58294;42.988;20.338;2023-04-03T09:03:30;281.70;2176.00
70593;DHT22;58294;42.988;20.338;2023-04-03T09:08:47;281.70;2150.40
70593;DHT22;58294;42.988;20.338;2023-04-03T09:22:54;281.70;2124.80
70593;DHT22;58294;42.988;20.338;2023-04-03T09:25:23;281.80;2176.00
70593;DHT22;58294;42.988;20.338;2023-04-03T09:27:52;281.90;2176.00
70593;DHT22;58294;42.988;20.338;2023-04-03T09:30:21;282.00;2124.80
70593;DHT22;58294;42.988;20.338;2023-04-03T09:32:50;281.90;2099.20
70593;DHT22;58294;42.988;20.338;2023-04-03T09:35:21;282.00;2124.80
70593;DHT22;58294;42.988;20.338;2023-04-03T09:37:51;282.00;2150.40
70593;DHT22;58294;42.988;20.338;2023-04-03T09:42:52;282.00;2073.60
70593;DHT22;58294;42.988;20.338;2023-04-03T09:45:34;281.90;2073.60
70593;DHT22;58294;42.988;20.338;2023-04-03T09:50:59;281.80;2073.60
70593;DHT22;58294;42.988;20.338;2023-04-03T09:55:51;281.90;2176.00
70593;DHT22;58294;42.988;20.338;2023-04-03T09:58:29;282.00;2099.20
70593;DHT22;58294;42.988;20.338;2023-04-03T10:01:00;281.90;2048.00
70593;DHT22;58294;42.988;20.338;2023-04-03T10:03:31;281.90;2048.00
70593;DHT22;58294;42.988;20.338;2023-04-03T10:05:58;281.90;2048.00
70593;DHT22;58294;42.988;20.338;2023-04-03T10:11:12;281.80;2048.00
70593;DHT22;58294;42.988;20.338;2023-04-03T10:13:57;281.80;2048.00
70593;DHT22;58294;42.988;20.338;2023-04-03T10:16:47;281.70;2048.00
70593;DHT22;58294;42.988;20.338;2023-04-03T10:19:24;281.60;2048.00
70593;DHT22;58294;42.988;20.338;2023-04-03T10:27:43;281.60;2073.60
70593;DHT22;58294;42.988;20.338;2023-04-03T10:30:22;281.70;2099.20
70593;DHT22;58294;42.988;20.338;2023-04-03T10:38:35;281.80;2048.00
70593;DHT22;58294;42.988;20.338;2023-04-03T10:41:04;281.70;1996.80
70593;DHT22;58294;42.988;20.338;2023-04-03T10:43:50;281.80;2048.00
70593;DHT22;58294;42.988;20.338;2023-04-03T10:54:41;256.80;1996.80
70593;DHT22;58294;42.988;20.338;2023-04-03T10:57:10;256.80;2048.00
70593;DHT22;58294;42.988;20.338;2023-04-03T10:59:51;256.80;1996.80
70593;DHT22;58294;42.988;20.338;2023-04-03T11:02:26;256.80;2022.40
70593;DHT22;58294;42.988;20.338;2023-04-03T11:05:07;256.70;1971.20
70593;DHT22;58294;42.988;20.338;2023-04-03T11:07:43;256.70;2022.40
70593;DHT22;58294;42.988;20.338;2023-04-03T11:10:21;256.60;2022.40
70593;DHT22;58294;42.988;20.338;2023-04-03T11:12:59;256.60;1996.80
70593;DHT22;58294;42.988;20.338;2023-04-03T11:15:30;256.60;2022.40
70593;DHT22;58294;42.988;20.338;2023-04-03T11:18:02;256.60;1971.20
70593;DHT22;58294;42.988;20.338;2023-04-03T11:20:31;256.50;1971.20
70593;DHT22;58294;42.988;20.338;2023-04-03T11:25:36;256.50;2022.40
70593;DHT22;58294;42.988;20.338;2023-04-03T11:28:06;256.50;1996.80
70593;DHT22;58294;42.988;20.338;2023-04-03T11:36:18;256.60;1996.80
70593;DHT22;58294;42.988;20.338;2023-04-03T11:38:46;256.60;1996.80
70593;DHT22;58294;42.988;20.338;2023-04-03T11:41:14;256.50;1971.20
70593;DHT22;58294;42.988;20.338;2023-04-03T11:43:55;256.40;1996.80
70593;DHT22;58294;42.988;20.338;2023-04-03T11:46:22;256.40;2022.40
70593;DHT22;58294;42.988;20.338;2023-04-03T11:48:50;256.30;1996.80
70593;DHT22;58294;42.988;20.338;2023-04-03T11:51:39;256.30;1996.80
70593;DHT22;58294;42.988;20.338;2023-04-03T11:55:09;256.30;1996.80
70593;DHT22;58294;42.988;20.338;2023-04-03T12:08:47;231.00;1996.80
70593;DHT22;58294;42.988;20.338;2023-04-03T12:11:31;231.10;2048.00
70593;DHT22;58294;42.988;20.338;2023-04-03T12:29:38;230.60;2048.00
70593;DHT22;58294;42.988;20.338;2023-04-03T12:40:31;230.70;2048.00
70593;DHT22;58294;42.988;20.338;2023-04-03T12:43:02;230.60;2048.00
70593;DHT22;58294;42.988;20.338;2023-04-03T12:45:51;230.70;2124.80
70593;DHT22;58294;42.988;20.338;2023-04-03T12:48:25;230.70;2073.60
70593;DHT22;58294;42.988;20.338;2023-04-03T12:50:52;230.70;2073.60
70593;DHT22;58294;42.988;20.338;2023-04-03T12:53:25;230.70;2048.00
70593;DHT22;58294;42.988;20.338;2023-04-03T12:55:56;230.60;2073.60
70593;DHT22;58294;42.988;20.338;2023-04-03T12:58:24;230.60;2073.60
70593;DHT22;58294;42.988;20.338;2023-04-03T13:01:04;230.60;2073.60
70593;DHT22;58294;42.988;20.338;2023-04-03T13:03:35;230.50;2073.60
70593;DHT22;58294;42.988;20.338;2023-04-03T13:06:04;230.50;2073.60
70593;DHT22;58294;42.988;20.338;2023-04-03T13:08:30;230.50;2099.20
70593;DHT22;58294;42.988;20.338;2023-04-03T13:11:02;230.50;2099.20
70593;DHT22;58294;42.988;20.338;2023-04-03T13:13:28;230.50;2099.20
70593;DHT22;58294;42.988;20.338;2023-04-03T13:15:55;230.50;2099.20
70593;DHT22;58294;42.988;20.338;2023-04-03T13:18:26;230.50;2124.80
70593;DHT22;58294;42.988;20.338;2023-04-03T13:20:57;230.50;2124.80
70593;DHT22;58294;42.988;20.338;2023-04-03T13:23:24;230.60;2176.00
70593;DHT22;58294;42.988;20.338;2023-04-03T13:25:51;230.70;2150.40
70593;DHT22;58294;42.988;20.338;2023-04-03T13:28:20;230.70;2124.80
70593;DHT22;58294;42.988;20.338;2023-04-03T13:36:24;230.70;2099.20
70593;DHT22;58294;42.988;20.338;2023-04-03T13:41:39;230.60;2073.60
70593;DHT22;58294;42.988;20.338;2023-04-03T13:46:58;230.40;2099.20
70593;DHT22;58294;42.988;20.338;2023-04-03T13:49:35;230.40;2124.80
70593;DHT22;58294;42.988;20.338;2023-04-03T13:52:21;230.50;2176.00
70593;DHT22;58294;42.988;20.338;2023-04-03T13:54:52;230.50;2124.80
70593;DHT22;58294;42.988;20.338;2023-04-03T13:57:20;230.60;2150.40
70593;DHT22;58294;42.988;20.338;2023-04-03T13:59:46;230.60;2099.20
70593;DHT22;58294;42.988;20.338;2023-04-03T14:02:16;230.60;2176.00
70593;DHT22;58294;42.988;20.338;2023-04-03T14:04:56;230.70;2176.00
70593;DHT22;58294;42.988;20.338;2023-04-03T14:07:24;230.80;2176.00
70593;DHT22;58294;42.988;20.338;2023-04-03T14:09:51;230.90;2150.40
70593;DHT22;58294;42.988;20.338;2023-04-03T14:12:31;230.80;2048.00
70593;DHT22;58294;42.988;20.338;2023-04-03T14:15:00;230.70;2099.20
70593;DHT22;58294;42.988;20.338;2023-04-03T14:17:27;230.80;2124.80
70593;DHT22;58294;42.988;20.338;2023-04-03T14:19:54;230.70;2048.00
70593;DHT22;58294;42.988;20.338;2023-04-03T14:22:26;230.50;2048.00
70593;DHT22;58294;42.988;20.338;2023-04-03T14:24:53;205.60;2073.60
70593;DHT22;58294;42.988;20.338;2023-04-03T14:27:26;205.60;2150.40
70593;DHT22;58294;42.988;20.338;2023-04-03T14:29:54;205.70;2150.40
70593;DHT22;58294;42.988;20.338;2023-04-03T14:32:22;230.40;2150.40
70593;DHT22;58294;42.988;20.338;2023-04-03T14:34:49;230.40;2150.40
70593;DHT22;58294;42.988;20.338;2023-04-03T14:37:19;230.40;2124.80
70593;DHT22;58294;42.988;20.338;2023-04-03T14:39:46;230.50;2150.40
70593;DHT22;58294;42.988;20.338;2023-04-03T14:42:15;230.60;2150.40
70593;DHT22;58294;42.988;20.338;2023-04-03T14:44:41;230.60;2124.80
70593;DHT22;58294;42.988;20.338;2023-04-03T14:47:12;230.70;2099.20
70593;DHT22;58294;42.988;20.338;2023-04-03T14:49:39;230.70;2048.00
70593;DHT22;58294;42.988;20.338;2023-04-03T14:52:05;230.70;2099.20
70593;DHT22;58294;42.988;20.338;2023-04-03T14:54:31;230.70;2099.20
70593;DHT22;58294;42.988;20.338;2023-04-03T14:56:58;230.70;2048.00
70593;DHT22;58294;42.988;20.338;2023-04-03T14:59:25;230.70;2073.60
70593;DHT22;58294;42.988;20.338;2023-04-03T15:01:51;230.60;2099.20
70593;DHT22;58294;42.988;20.338;2023-04-03T15:04:18;230.70;2073.60
70593;DHT22;58294;42.988;20.338;2023-04-03T15:06:45;230.70;2099.20
70593;DHT22;58294;42.988;20.338;2023-04-03T15:09:26;230.80;2124.80
70593;DHT22;58294;42.988;20.338;2023-04-03T15:11:53;230.80;2124.80
70593;DHT22;58294;42.988;20.338;2023-04-03T15:14:20;230.90;2099.20
70593;DHT22;58294;42.988;20.338;2023-04-03T15:16:45;230.80;2048.00
70593;DHT22;58294;42.988;20.338;2023-04-03T15:19:12;230.80;2048.00
70593;DHT22;58294;42.988;20.338;2023-04-03T15:21:38;230.60;1996.80
70593;DHT22;58294;42.988;20.338;2023-04-03T15:24:04;230.50;1996.80
70593;DHT22;58294;42.988;20.338;2023-04-03T15:26:31;230.50;2048.00
70593;DHT22;58294;42.988;20.338;2023-04-03T15:28:57;230.40;1996.80
70593;DHT22;58294;42.988;20.338;2023-04-03T15:31:23;230.40;2048.00
70593;DHT22;58294;42.988;20.338;2023-04-03T15:33:49;230.40;2073.60
70593;DHT22;58294;42.988;20.338;2023-04-03T15:36:15;230.40;2048.00
70593;DHT22;58294;42.988;20.338;2023-04-03T15:38:41;205.70;2048.00
70593;DHT22;58294;42.988;20.338;2023-04-03T15:41:06;205.70;2048.00
70593;DHT22;58294;42.988;20.338;2023-04-03T15:43:32;205.70;2073.60
70593;DHT22;58294;42.988;20.338;2023-04-03T15:46:01;205.70;2048.00
70593;DHT22;58294;42.988;20.338;2023-04-03T15:48:27;205.60;2048.00
70593;DHT22;58294;42.988;20.338;2023-04-03T15:50:54;205.60;2022.40
70593;DHT22;58294;42.988;20.338;2023-04-03T15:53:20;205.60;2048.00
70593;DHT22;58294;42.988;20.338;2023-04-03T15:55:46;205.60;2073.60
70593;DHT22;58294;42.988;20.338;2023-04-03T15:58:11;205.50;2022.40
70593;DHT22;58294;42.988;20.338;2023-04-03T16:00:38;205.30;1971.20
70593;DHT22;58294;42.988;20.338;2023-04-03T16:03:17;205.20;2048.00
70593;DHT22;58294;42.988;20.338;2023-04-03T16:05:43;205.30;2099.20
70593;DHT22;58294;42.988;20.338;2023-04-03T16:08:09;205.30;2073.60
70593;DHT22;58294;42.988;20.338;2023-04-03T16:10:36;205.30;2099.20
70593;DHT22;58294;42.988;20.338;2023-04-03T16:13:03;205.30;2124.80
70593;DHT22;58294;42.988;20.338;2023-04-03T16:15:30;205.30;2022.40
70593;DHT22;58294;42.988;20.338;2023-04-03T16:17:57;205.20;2048.00
70593;DHT22;58294;42.988;20.338;2023-04-03T16:20:23;205.10;2073.60
70593;DHT22;58294;42.988;20.338;2023-04-03T16:22:50;204.90;1996.80
70593;DHT22;58294;42.988;20.338;2023-04-03T16:25:16;204.80;2048.00
70593;DHT22;58294;42.988;20.338;2023-04-03T16:27:42;204.80;2048.00
70593;DHT22;58294;42.988;20.338;2023-04-03T16:30:08;180.10;2073.60
70593;DHT22;58294;42.988;20.338;2023-04-03T16:32:35;180.00;2048.00
70593;DHT22;58294;42.988;20.338;2023-04-03T16:35:02;180.00;2124.80